sensor_id;sensor_type;location;lat;lon;timestamp;P1;durP1;ratioP1;P2;durP2;ratioP2
17592;SDS011;8915;51.760;14.300;2022-08-02T00:01:54;1.53;;;1.43;;
17592;SDS011;8915;51.760;14.300;2022-08-02T00:04:20;1.37;;;1.23;;
17592;SDS011;8915;51.760;14.300;2022-08-02T00:06:47;2.00;;;1.80;;
17592;SDS011;8915;51.760;14.300;2022-08-02T00:09:15;1.57;;;1.40;;
17592;SDS011;8915;51.760;14.300;2022-08-02T00:11:41;1.50;;;1.40;;
17592;SDS011;8915;51.760;14.300;2022-08-02T00:14:08;2.50;;;1.53;;
17592;SDS011;8915;51.760;14.300;2022-08-02T00:16:34;1.57;;;1.47;;
17592;SDS011;8915;51.760;14.300;2022-08-02T00:19:01;1.50;;;1.40;;
17592;SDS011;8915;51.760;14.300;2022-08-02T00:21:28;1.73;;;1.37;;
17592;SDS011;8915;51.760;14.300;2022-08-02T00:23:54;2.03;;;1.77;;
17592;SDS011;8915;51.760;14.300;2022-08-02T00:26:22;1.47;;;1.37;;
17592;SDS011;8915;51.760;14.300;2022-08-02T00:28:48;1.57;;;1.47;;
17592;SDS011;8915;51.760;14.300;2022-08-02T00:31:14;1.50;;;1.40;;
17592;SDS011;8915;51.760;14.300;2022-08-02T00:33:41;1.50;;;1.40;;
17592;SDS011;8915;51.760;14.300;2022-08-02T00:36:07;1.60;;;1.50;;
17592;SDS011;8915;51.760;14.300;2022-08-02T00:38:33;1.50;;;1.40;;
17592;SDS011;8915;51.760;14.300;2022-08-02T00:41:00;2.77;;;2.00;;
17592;SDS011;8915;51.760;14.300;2022-08-02T00:43:28;1.47;;;1.37;;
17592;SDS011;8915;51.760;14.300;2022-08-02T00:45:54;1.67;;;1.50;;
17592;SDS011;8915;51.760;14.300;2022-08-02T00:48:22;1.80;;;1.67;;
17592;SDS011;8915;51.760;14.300;2022-08-02T00:50:48;1.90;;;1.70;;
17592;SDS011;8915;51.760;14.300;2022-08-02T00:53:14;1.67;;;1.50;;
17592;SDS011;8915;51.760;14.300;2022-08-02T00:55:41;1.70;;;1.60;;
17592;SDS011;8915;51.760;14.300;2022-08-02T00:58:08;1.87;;;1.67;;
17592;SDS011;8915;51.760;14.300;2022-08-02T01:00:35;1.90;;;1.80;;
17592;SDS011;8915;51.760;14.300;2022-08-02T01:03:02;2.20;;;2.00;;
17592;SDS011;8915;51.760;14.300;2022-08-02T01:05:28;1.97;;;1.77;;
17592;SDS011;8915;51.760;14.300;2022-08-02T01:07:55;1.70;;;1.60;;
17592;SDS011;8915;51.760;14.300;2022-08-02T01:10:21;6.70;;;2.10;;
17592;SDS011;8915;51.760;14.300;2022-08-02T01:12:48;2.83;;;2.37;;
17592;SDS011;8915;51.760;14.300;2022-08-02T01:15:15;2.07;;;1.73;;
17592;SDS011;8915;51.760;14.300;2022-08-02T01:17:45;1.80;;;1.60;;
17592;SDS011;8915;51.760;14.300;2022-08-02T01:20:17;1.73;;;1.40;;
17592;SDS011;8915;51.760;14.300;2022-08-02T01:23:13;2.10;;;1.90;;
17592;SDS011;8915;51.760;14.300;2022-08-02T01:26:01;1.93;;;1.50;;
17592;SDS011;8915;51.760;14.300;2022-08-02T01:28:36;2.20;;;1.93;;
17592;SDS011;8915;51.760;14.300;2022-08-02T01:31:08;2.03;;;1.83;;
17592;SDS011;8915;51.760;14.300;2022-08-02T01:33:40;1.67;;;1.57;;
17592;SDS011;8915;51.760;14.300;2022-08-02T01:36:13;1.73;;;1.63;;
17592;SDS011;8915;51.760;14.300;2022-08-02T01:38:44;3.73;;;1.80;;
17592;SDS011;8915;51.760;14.300;2022-08-02T01:41:14;3.37;;;1.90;;
17592;SDS011;8915;51.760;14.300;2022-08-02T01:43:45;2.87;;;1.87;;
17592;SDS011;8915;51.760;14.300;2022-08-02T01:46:14;2.40;;;2.00;;
17592;SDS011;8915;51.760;14.300;2022-08-02T01:48:43;3.23;;;2.10;;
17592;SDS011;8915;51.760;14.300;2022-08-02T01:51:12;2.20;;;2.00;;
17592;SDS011;8915;51.760;14.300;2022-08-02T01:53:41;2.73;;;2.00;;
17592;SDS011;8915;51.760;14.300;2022-08-02T01:56:10;2.80;;;1.80;;
17592;SDS011;8915;51.760;14.300;2022-08-02T01:58:39;1.90;;;1.80;;
17592;SDS011;8915;51.760;14.300;2022-08-02T02:01:08;2.00;;;1.80;;
17592;SDS011;8915;51.760;14.300;2022-08-02T02:03:38;4.07;;;1.87;;
17592;SDS011;8915;51.760;14.300;2022-08-02T02:06:05;1.80;;;1.70;;
17592;SDS011;8915;51.760;14.300;2022-08-02T02:08:35;2.03;;;1.83;;
17592;SDS011;8915;51.760;14.300;2022-08-02T02:11:04;2.07;;;1.87;;
17592;SDS011;8915;51.760;14.300;2022-08-02T02:13:32;2.17;;;1.97;;
17592;SDS011;8915;51.760;14.300;2022-08-02T02:16:04;2.90;;;2.30;;
17592;SDS011;8915;51.760;14.300;2022-08-02T02:18:33;3.13;;;1.90;;
17592;SDS011;8915;51.760;14.300;2022-08-02T02:21:08;2.40;;;2.03;;
17592;SDS011;8915;51.760;14.300;2022-08-02T02:23:34;2.33;;;2.00;;
17592;SDS011;8915;51.760;14.300;2022-08-02T02:26:01;2.37;;;2.03;;
17592;SDS011;8915;51.760;14.300;2022-08-02T02:28:30;2.37;;;2.10;;
17592;SDS011;8915;51.760;14.300;2022-08-02T02:31:01;2.90;;;2.10;;
17592;SDS011;8915;51.760;14.300;2022-08-02T02:33:34;1.93;;;1.80;;
17592;SDS011;8915;51.760;14.300;2022-08-02T02:36:05;3.07;;;2.43;;
17592;SDS011;8915;51.760;14.300;2022-08-02T02:38:34;2.23;;;1.97;;
17592;SDS011;8915;51.760;14.300;2022-08-02T02:41:02;2.40;;;2.20;;
17592;SDS011;8915;51.760;14.300;2022-08-02T02:43:31;2.10;;;1.90;;
17592;SDS011;8915;51.760;14.300;2022-08-02T02:45:59;2.10;;;1.90;;
17592;SDS011;8915;51.760;14.300;2022-08-02T02:48:26;2.47;;;2.13;;
17592;SDS011;8915;51.760;14.300;2022-08-02T02:50:55;2.67;;;2.23;;
17592;SDS011;8915;51.760;14.300;2022-08-02T02:53:23;2.20;;;2.00;;
17592;SDS011;8915;51.760;14.300;2022-08-02T02:55:50;2.93;;;2.27;;
17592;SDS011;8915;51.760;14.300;2022-08-02T02:58:18;3.20;;;1.83;;
17592;SDS011;8915;51.760;14.300;2022-08-02T03:00:45;2.27;;;2.07;;
17592;SDS011;8915;51.760;14.300;2022-08-02T03:03:41;2.23;;;2.03;;
17592;SDS011;8915;51.760;14.300;2022-08-02T03:06:10;1.93;;;1.70;;
17592;SDS011;8915;51.760;14.300;2022-08-02T03:08:37;2.37;;;2.17;;
17592;SDS011;8915;51.760;14.300;2022-08-02T03:11:03;2.17;;;1.97;;
17592;SDS011;8915;51.760;14.300;2022-08-02T03:13:30;2.27;;;2.07;;
17592;SDS011;8915;51.760;14.300;2022-08-02T03:15:57;2.40;;;2.20;;
17592;SDS011;8915;51.760;14.300;2022-08-02T03:18:28;2.47;;;2.27;;
17592;SDS011;8915;51.760;14.300;2022-08-02T03:20:57;2.30;;;2.10;;
17592;SDS011;8915;51.760;14.300;2022-08-02T03:23:26;2.30;;;1.97;;
17592;SDS011;8915;51.760;14.300;2022-08-02T03:25:52;2.40;;;2.17;;
17592;SDS011;8915;51.760;14.300;2022-08-02T03:28:18;1.83;;;1.73;;
17592;SDS011;8915;51.760;14.300;2022-08-02T03:30:45;2.90;;;2.30;;
17592;SDS011;8915;51.760;14.300;2022-08-02T03:33:11;3.00;;;2.70;;
17592;SDS011;8915;51.760;14.300;2022-08-02T03:35:39;2.20;;;2.00;;
17592;SDS011;8915;51.760;14.300;2022-08-02T03:38:08;1.97;;;1.70;;
17592;SDS011;8915;51.760;14.300;2022-08-02T03:40:37;2.43;;;2.20;;
17592;SDS011;8915;51.760;14.300;2022-08-02T03:43:05;2.63;;;1.90;;
17592;SDS011;8915;51.760;14.300;2022-08-02T03:45:32;2.17;;;1.93;;
17592;SDS011;8915;51.760;14.300;2022-08-02T03:47:59;2.40;;;2.20;;
17592;SDS011;8915;51.760;14.300;2022-08-02T03:50:26;2.60;;;2.40;;
17592;SDS011;8915;51.760;14.300;2022-08-02T03:52:53;2.83;;;2.53;;
17592;SDS011;8915;51.760;14.300;2022-08-02T03:55:19;2.70;;;1.93;;
17592;SDS011;8915;51.760;14.300;2022-08-02T03:57:47;2.47;;;2.27;;
17592;SDS011;8915;51.760;14.300;2022-08-02T04:00:16;2.50;;;2.30;;
17592;SDS011;8915;51.760;14.300;2022-08-02T04:02:44;2.80;;;2.50;;
17592;SDS011;8915;51.760;14.300;2022-08-02T04:05:10;3.17;;;2.60;;
17592;SDS011;8915;51.760;14.300;2022-08-02T04:07:37;2.83;;;2.60;;
17592;SDS011;8915;51.760;14.300;2022-08-02T04:10:03;2.47;;;2.27;;
17592;SDS011;8915;51.760;14.300;2022-08-02T04:12:30;3.13;;;2.53;;
17592;SDS011;8915;51.760;14.300;2022-08-02T04:14:58;5.50;;;2.83;;
17592;SDS011;8915;51.760;14.300;2022-08-02T04:17:25;3.37;;;2.60;;
17592;SDS011;8915;51.760;14.300;2022-08-02T04:19:57;3.33;;;3.03;;
17592;SDS011;8915;51.760;14.300;2022-08-02T04:22:29;2.50;;;2.30;;
17592;SDS011;8915;51.760;14.300;2022-08-02T04:25:06;2.67;;;2.47;;
17592;SDS011;8915;51.760;14.300;2022-08-02T04:27:34;3.40;;;2.83;;
17592;SDS011;8915;51.760;14.300;2022-08-02T04:30:04;2.97;;;2.60;;
17592;SDS011;8915;51.760;14.300;2022-08-02T04:32:32;2.80;;;2.60;;
17592;SDS011;8915;51.760;14.300;2022-08-02T04:35:00;2.70;;;2.50;;
17592;SDS011;8915;51.760;14.300;2022-08-02T04:37:27;3.20;;;2.80;;
17592;SDS011;8915;51.760;14.300;2022-08-02T04:39:54;3.27;;;2.67;;
17592;SDS011;8915;51.760;14.300;2022-08-02T04:42:20;3.13;;;2.83;;
17592;SDS011;8915;51.760;14.300;2022-08-02T04:44:47;4.77;;;3.00;;
17592;SDS011;8915;51.760;14.300;2022-08-02T04:47:15;3.50;;;3.20;;
17592;SDS011;8915;51.760;14.300;2022-08-02T04:49:43;3.73;;;2.63;;
17592;SDS011;8915;51.760;14.300;2022-08-02T04:52:09;3.63;;;3.10;;
17592;SDS011;8915;51.760;14.300;2022-08-02T04:54:36;3.03;;;2.73;;
17592;SDS011;8915;51.760;14.300;2022-08-02T04:57:03;3.47;;;3.17;;
17592;SDS011;8915;51.760;14.300;2022-08-02T04:59:49;3.63;;;3.27;;
17592;SDS011;8915;51.760;14.300;2022-08-02T05:02:17;3.83;;;3.43;;
17592;SDS011;8915;51.760;14.300;2022-08-02T05:04:43;3.43;;;3.10;;
17592;SDS011;8915;51.760;14.300;2022-08-02T05:07:10;4.00;;;3.60;;
17592;SDS011;8915;51.760;14.300;2022-08-02T05:09:36;4.47;;;3.50;;
17592;SDS011;8915;51.760;14.300;2022-08-02T05:12:04;3.40;;;3.10;;
17592;SDS011;8915;51.760;14.300;2022-08-02T05:14:31;3.30;;;2.97;;
17592;SDS011;8915;51.760;14.300;2022-08-02T05:16:58;3.60;;;3.30;;
17592;SDS011;8915;51.760;14.300;2022-08-02T05:19:26;4.23;;;3.33;;
17592;SDS011;8915;51.760;14.300;2022-08-02T05:21:52;3.43;;;3.13;;
17592;SDS011;8915;51.760;14.300;2022-08-02T05:24:18;3.83;;;3.23;;
17592;SDS011;8915;51.760;14.300;2022-08-02T05:26:45;4.57;;;3.03;;
17592;SDS011;8915;51.760;14.300;2022-08-02T05:29:11;4.10;;;3.40;;
17592;SDS011;8915;51.760;14.300;2022-08-02T05:31:38;4.20;;;3.27;;
17592;SDS011;8915;51.760;14.300;2022-08-02T05:34:04;3.57;;;3.10;;
17592;SDS011;8915;51.760;14.300;2022-08-02T05:36:32;4.17;;;2.97;;
17592;SDS011;8915;51.760;14.300;2022-08-02T05:38:58;3.27;;;2.93;;
17592;SDS011;8915;51.760;14.300;2022-08-02T05:41:25;3.70;;;3.30;;
17592;SDS011;8915;51.760;14.300;2022-08-02T05:43:51;3.67;;;2.80;;
17592;SDS011;8915;51.760;14.300;2022-08-02T05:46:17;3.20;;;2.80;;
17592;SDS011;8915;51.760;14.300;2022-08-02T05:48:44;3.77;;;2.67;;
17592;SDS011;8915;51.760;14.300;2022-08-02T05:51:11;3.20;;;2.90;;
17592;SDS011;8915;51.760;14.300;2022-08-02T05:53:46;2.97;;;2.67;;
17592;SDS011;8915;51.760;14.300;2022-08-02T05:56:17;2.40;;;2.20;;
17592;SDS011;8915;51.760;14.300;2022-08-02T05:58:49;4.00;;;3.00;;
17592;SDS011;8915;51.760;14.300;2022-08-02T06:01:22;2.90;;;2.60;;
17592;SDS011;8915;51.760;14.300;2022-08-02T06:03:55;3.10;;;2.70;;
17592;SDS011;8915;51.760;14.300;2022-08-02T06:06:22;2.90;;;2.60;;
17592;SDS011;8915;51.760;14.300;2022-08-02T06:08:53;3.40;;;3.10;;
17592;SDS011;8915;51.760;14.300;2022-08-02T06:11:23;2.60;;;2.40;;
17592;SDS011;8915;51.760;14.300;2022-08-02T06:13:59;7.43;;;2.60;;
17592;SDS011;8915;51.760;14.300;2022-08-02T06:16:27;3.90;;;2.70;;
17592;SDS011;8915;51.760;14.300;2022-08-02T06:18:55;3.10;;;2.80;;
17592;SDS011;8915;51.760;14.300;2022-08-02T06:21:23;4.27;;;2.47;;
17592;SDS011;8915;51.760;14.300;2022-08-02T06:23:52;2.93;;;2.70;;
17592;SDS011;8915;51.760;14.300;2022-08-02T06:26:22;2.90;;;2.70;;
17592;SDS011;8915;51.760;14.300;2022-08-02T06:28:50;3.07;;;2.53;;
17592;SDS011;8915;51.760;14.300;2022-08-02T06:31:18;2.87;;;2.57;;
17592;SDS011;8915;51.760;14.300;2022-08-02T06:33:45;3.37;;;2.50;;
17592;SDS011;8915;51.760;14.300;2022-08-02T06:36:14;2.80;;;2.60;;
17592;SDS011;8915;51.760;14.300;2022-08-02T06:38:46;3.03;;;2.60;;
17592;SDS011;8915;51.760;14.300;2022-08-02T06:41:21;4.50;;;2.60;;
17592;SDS011;8915;51.760;14.300;2022-08-02T06:43:52;3.20;;;2.57;;
17592;SDS011;8915;51.760;14.300;2022-08-02T06:46:20;3.20;;;2.60;;
17592;SDS011;8915;51.760;14.300;2022-08-02T06:48:46;5.53;;;2.77;;
17592;SDS011;8915;51.760;14.300;2022-08-02T06:51:13;4.17;;;2.57;;
17592;SDS011;8915;51.760;14.300;2022-08-02T06:53:40;2.80;;;2.23;;
17592;SDS011;8915;51.760;14.300;2022-08-02T06:56:06;3.80;;;2.77;;
17592;SDS011;8915;51.760;14.300;2022-08-02T06:58:34;4.27;;;2.47;;
17592;SDS011;8915;51.760;14.300;2022-08-02T07:01:00;2.77;;;2.30;;
17592;SDS011;8915;51.760;14.300;2022-08-02T07:03:31;2.50;;;2.13;;
17592;SDS011;8915;51.760;14.300;2022-08-02T07:05:58;2.70;;;2.50;;
17592;SDS011;8915;51.760;14.300;2022-08-02T07:08:24;2.57;;;2.37;;
17592;SDS011;8915;51.760;14.300;2022-08-02T07:10:55;2.23;;;1.83;;
17592;SDS011;8915;51.760;14.300;2022-08-02T07:13:22;2.23;;;2.03;;
17592;SDS011;8915;51.760;14.300;2022-08-02T07:15:50;3.47;;;2.40;;
17592;SDS011;8915;51.760;14.300;2022-08-02T07:18:16;4.17;;;2.77;;
17592;SDS011;8915;51.760;14.300;2022-08-02T07:20:42;4.43;;;2.67;;
17592;SDS011;8915;51.760;14.300;2022-08-02T07:23:10;2.53;;;2.30;;
17592;SDS011;8915;51.760;14.300;2022-08-02T07:25:36;2.87;;;2.50;;
17592;SDS011;8915;51.760;14.300;2022-08-02T07:28:03;2.93;;;2.63;;
17592;SDS011;8915;51.760;14.300;2022-08-02T07:30:30;3.50;;;2.43;;
17592;SDS011;8915;51.760;14.300;2022-08-02T07:32:58;2.80;;;2.20;;
17592;SDS011;8915;51.760;14.300;2022-08-02T07:35:25;2.70;;;2.30;;
17592;SDS011;8915;51.760;14.300;2022-08-02T07:37:51;3.30;;;2.60;;
17592;SDS011;8915;51.760;14.300;2022-08-02T07:40:18;2.77;;;2.33;;
17592;SDS011;8915;51.760;14.300;2022-08-02T07:42:45;3.20;;;2.57;;
17592;SDS011;8915;51.760;14.300;2022-08-02T07:45:13;3.10;;;2.47;;
17592;SDS011;8915;51.760;14.300;2022-08-02T07:47:39;3.10;;;2.80;;
17592;SDS011;8915;51.760;14.300;2022-08-02T07:50:09;4.20;;;2.40;;
17592;SDS011;8915;51.760;14.300;2022-08-02T07:52:36;3.23;;;2.13;;
17592;SDS011;8915;51.760;14.300;2022-08-02T07:55:04;3.33;;;2.20;;
17592;SDS011;8915;51.760;14.300;2022-08-02T07:57:31;2.35;;;2.15;;
17592;SDS011;8915;51.760;14.300;2022-08-02T07:59:57;2.20;;;2.00;;
17592;SDS011;8915;51.760;14.300;2022-08-02T08:02:24;2.55;;;2.28;;
17592;SDS011;8915;51.760;14.300;2022-08-02T08:04:51;3.03;;;2.35;;
17592;SDS011;8915;51.760;14.300;2022-08-02T08:07:19;2.38;;;2.10;;
17592;SDS011;8915;51.760;14.300;2022-08-02T08:09:46;2.83;;;2.22;;
17592;SDS011;8915;51.760;14.300;2022-08-02T08:12:14;3.88;;;2.72;;
17592;SDS011;8915;51.760;14.300;2022-08-02T08:14:41;3.40;;;2.20;;
17592;SDS011;8915;51.760;14.300;2022-08-02T08:17:07;2.40;;;2.20;;
17592;SDS011;8915;51.760;14.300;2022-08-02T08:19:34;2.30;;;2.10;;
17592;SDS011;8915;51.760;14.300;2022-08-02T08:22:01;2.78;;;2.10;;
17592;SDS011;8915;51.760;14.300;2022-08-02T08:24:29;3.78;;;2.33;;
17592;SDS011;8915;51.760;14.300;2022-08-02T08:26:55;2.90;;;2.38;;
17592;SDS011;8915;51.760;14.300;2022-08-02T08:29:22;2.90;;;2.20;;
17592;SDS011;8915;51.760;14.300;2022-08-02T08:31:50;2.40;;;2.20;;
17592;SDS011;8915;51.760;14.300;2022-08-02T08:34:17;2.58;;;2.15;;
17592;SDS011;8915;51.760;14.300;2022-08-02T08:36:43;2.03;;;1.83;;
17592;SDS011;8915;51.760;14.300;2022-08-02T08:39:10;2.42;;;2.10;;
17592;SDS011;8915;51.760;14.300;2022-08-02T08:41:40;2.22;;;1.77;;
17592;SDS011;8915;51.760;14.300;2022-08-02T08:44:07;2.08;;;1.88;;
17592;SDS011;8915;51.760;14.300;2022-08-02T08:46:35;2.25;;;2.05;;
17592;SDS011;8915;51.760;14.300;2022-08-02T08:49:05;2.20;;;1.50;;
17592;SDS011;8915;51.760;14.300;2022-08-02T08:51:35;1.60;;;1.50;;
17592;SDS011;8915;51.760;14.300;2022-08-02T08:54:03;1.70;;;1.58;;
17592;SDS011;8915;51.760;14.300;2022-08-02T08:56:34;1.70;;;1.60;;
17592;SDS011;8915;51.760;14.300;2022-08-02T08:59:02;1.60;;;1.50;;
17592;SDS011;8915;51.760;14.300;2022-08-02T09:01:29;1.80;;;1.60;;
17592;SDS011;8915;51.760;14.300;2022-08-02T09:03:55;2.40;;;1.60;;
17592;SDS011;8915;51.760;14.300;2022-08-02T09:06:22;1.70;;;1.25;;
17592;SDS011;8915;51.760;14.300;2022-08-02T09:08:49;1.83;;;1.48;;
17592;SDS011;8915;51.760;14.300;2022-08-02T09:11:16;1.75;;;1.65;;
17592;SDS011;8915;51.760;14.300;2022-08-02T09:13:50;1.48;;;1.38;;
17592;SDS011;8915;51.760;14.300;2022-08-02T09:16:29;1.60;;;1.30;;
17592;SDS011;8915;51.760;14.300;2022-08-02T09:18:57;2.95;;;1.48;;
17592;SDS011;8915;51.760;14.300;2022-08-02T09:21:33;3.03;;;1.10;;
17592;SDS011;8915;51.760;14.300;2022-08-02T09:24:00;1.15;;;1.05;;
17592;SDS011;8915;51.760;14.300;2022-08-02T09:26:27;1.30;;;1.20;;
17592;SDS011;8915;51.760;14.300;2022-08-02T09:28:58;1.30;;;1.20;;
17592;SDS011;8915;51.760;14.300;2022-08-02T09:31:26;1.38;;;0.90;;
17592;SDS011;8915;51.760;14.300;2022-08-02T09:33:54;1.05;;;0.98;;
17592;SDS011;8915;51.760;14.300;2022-08-02T09:36:23;1.50;;;1.25;;
17592;SDS011;8915;51.760;14.300;2022-08-02T09:38:53;1.73;;;1.33;;
17592;SDS011;8915;51.760;14.300;2022-08-02T09:41:23;1.50;;;1.40;;
17592;SDS011;8915;51.760;14.300;2022-08-02T09:43:51;1.52;;;1.30;;
17592;SDS011;8915;51.760;14.300;2022-08-02T09:46:19;1.30;;;1.20;;
17592;SDS011;8915;51.760;14.300;2022-08-02T09:48:47;2.72;;;1.30;;
17592;SDS011;8915;51.760;14.300;2022-08-02T09:51:20;1.20;;;1.10;;
17592;SDS011;8915;51.760;14.300;2022-08-02T09:53:48;1.10;;;1.10;;
17592;SDS011;8915;51.760;14.300;2022-08-02T09:56:16;1.30;;;1.20;;
17592;SDS011;8915;51.760;14.300;2022-08-02T09:58:43;1.27;;;1.17;;
17592;SDS011;8915;51.760;14.300;2022-08-02T10:01:10;2.75;;;1.08;;
17592;SDS011;8915;51.760;14.300;2022-08-02T10:03:36;2.20;;;1.10;;
17592;SDS011;8915;51.760;14.300;2022-08-02T10:06:20;1.42;;;1.30;;
17592;SDS011;8915;51.760;14.300;2022-08-02T10:08:46;1.30;;;1.15;;
17592;SDS011;8915;51.760;14.300;2022-08-02T10:11:13;1.30;;;1.20;;
17592;SDS011;8915;51.760;14.300;2022-08-02T10:13:40;1.30;;;1.20;;
17592;SDS011;8915;51.760;14.300;2022-08-02T10:16:08;1.50;;;1.40;;
17592;SDS011;8915;51.760;14.300;2022-08-02T10:18:35;1.40;;;1.30;;
17592;SDS011;8915;51.760;14.300;2022-08-02T10:21:01;1.38;;;1.27;;
17592;SDS011;8915;51.760;14.300;2022-08-02T10:23:33;1.17;;;1.10;;
17592;SDS011;8915;51.760;14.300;2022-08-02T10:26:03;1.40;;;1.30;;
17592;SDS011;8915;51.760;14.300;2022-08-02T10:28:32;1.35;;;1.25;;
17592;SDS011;8915;51.760;14.300;2022-08-02T10:30:59;1.90;;;1.40;;
17592;SDS011;8915;51.760;14.300;2022-08-02T10:33:27;1.42;;;1.33;;
17592;SDS011;8915;51.760;14.300;2022-08-02T10:35:55;1.48;;;1.38;;
17592;SDS011;8915;51.760;14.300;2022-08-02T10:38:24;1.38;;;1.10;;
17592;SDS011;8915;51.760;14.300;2022-08-02T10:40:53;1.40;;;1.30;;
17592;SDS011;8915;51.760;14.300;2022-08-02T10:46:19;1.20;;;1.10;;
17592;SDS011;8915;51.760;14.300;2022-08-02T10:49:01;1.20;;;1.10;;
17592;SDS011;8915;51.760;14.300;2022-08-02T10:54:31;1.38;;;1.20;;
17592;SDS011;8915;51.760;14.300;2022-08-02T10:57:00;1.10;;;1.00;;
17592;SDS011;8915;51.760;14.300;2022-08-02T10:59:28;1.35;;;1.25;;
17592;SDS011;8915;51.760;14.300;2022-08-02T11:01:55;1.52;;;1.42;;
17592;SDS011;8915;51.760;14.300;2022-08-02T11:04:29;1.40;;;1.30;;
17592;SDS011;8915;51.760;14.300;2022-08-02T11:07:06;3.47;;;1.33;;
17592;SDS011;8915;51.760;14.300;2022-08-02T11:09:34;1.15;;;1.08;;
17592;SDS011;8915;51.760;14.300;2022-08-02T11:12:03;1.40;;;1.30;;
17592;SDS011;8915;51.760;14.300;2022-08-02T11:14:33;1.25;;;1.15;;
17592;SDS011;8915;51.760;14.300;2022-08-02T11:17:05;2.63;;;1.42;;
17592;SDS011;8915;51.760;14.300;2022-08-02T11:22:41;1.35;;;1.25;;
17592;SDS011;8915;51.760;14.300;2022-08-02T11:27:59;1.70;;;1.20;;
17592;SDS011;8915;51.760;14.300;2022-08-02T11:30:33;1.42;;;1.33;;
17592;SDS011;8915;51.760;14.300;2022-08-02T11:33:00;1.35;;;1.17;;
17592;SDS011;8915;51.760;14.300;2022-08-02T11:35:30;1.15;;;1.10;;
17592;SDS011;8915;51.760;14.300;2022-08-02T11:37:59;1.30;;;1.20;;
17592;SDS011;8915;51.760;14.300;2022-08-02T11:40:38;1.13;;;1.05;;
17592;SDS011;8915;51.760;14.300;2022-08-02T11:43:07;1.40;;;1.30;;
17592;SDS011;8915;51.760;14.300;2022-08-02T11:45:41;1.65;;;1.30;;
17592;SDS011;8915;51.760;14.300;2022-08-02T11:48:08;1.20;;;1.10;;
17592;SDS011;8915;51.760;14.300;2022-08-02T11:50:34;1.25;;;1.10;;
17592;SDS011;8915;51.760;14.300;2022-08-02T11:53:00;1.42;;;1.33;;
17592;SDS011;8915;51.760;14.300;2022-08-02T11:55:27;1.20;;;1.10;;
17592;SDS011;8915;51.760;14.300;2022-08-02T11:57:56;1.50;;;1.40;;
17592;SDS011;8915;51.760;14.300;2022-08-02T12:00:24;1.30;;;1.20;;
17592;SDS011;8915;51.760;14.300;2022-08-02T12:02:51;1.35;;;1.10;;
17592;SDS011;8915;51.760;14.300;2022-08-02T12:05:18;1.30;;;1.20;;
17592;SDS011;8915;51.760;14.300;2022-08-02T12:07:48;2.25;;;1.05;;
17592;SDS011;8915;51.760;14.300;2022-08-02T12:10:18;1.35;;;1.20;;
17592;SDS011;8915;51.760;14.300;2022-08-02T12:12:46;1.00;;;1.00;;
17592;SDS011;8915;51.760;14.300;2022-08-02T12:15:14;1.38;;;1.25;;
17592;SDS011;8915;51.760;14.300;2022-08-02T12:17:46;1.13;;;1.08;;
17592;SDS011;8915;51.760;14.300;2022-08-02T12:20:34;1.40;;;1.13;;
17592;SDS011;8915;51.760;14.300;2022-08-02T12:23:02;1.20;;;1.10;;
17592;SDS011;8915;51.760;14.300;2022-08-02T12:25:29;1.10;;;1.10;;
17592;SDS011;8915;51.760;14.300;2022-08-02T12:28:11;1.40;;;1.30;;
17592;SDS011;8915;51.760;14.300;2022-08-02T12:30:47;1.30;;;1.20;;
17592;SDS011;8915;51.760;14.300;2022-08-02T12:33:16;1.52;;;1.17;;
17592;SDS011;8915;51.760;14.300;2022-08-02T12:35:43;1.33;;;1.20;;
17592;SDS011;8915;51.760;14.300;2022-08-02T12:38:10;1.00;;;1.00;;
17592;SDS011;8915;51.760;14.300;2022-08-02T12:40:37;1.30;;;1.20;;
17592;SDS011;8915;51.760;14.300;2022-08-02T12:43:05;2.20;;;1.10;;
17592;SDS011;8915;51.760;14.300;2022-08-02T12:45:43;1.30;;;1.20;;
17592;SDS011;8915;51.760;14.300;2022-08-02T12:48:11;1.05;;;1.00;;
17592;SDS011;8915;51.760;14.300;2022-08-02T12:50:39;1.45;;;1.27;;
17592;SDS011;8915;51.760;14.300;2022-08-02T12:53:06;1.48;;;1.35;;
17592;SDS011;8915;51.760;14.300;2022-08-02T12:55:34;1.17;;;1.08;;
17592;SDS011;8915;51.760;14.300;2022-08-02T12:58:04;1.33;;;1.00;;
17592;SDS011;8915;51.760;14.300;2022-08-02T13:00:33;1.30;;;1.20;;
17592;SDS011;8915;51.760;14.300;2022-08-02T13:03:02;1.17;;;1.08;;
17592;SDS011;8915;51.760;14.300;2022-08-02T13:05:32;1.42;;;1.20;;
17592;SDS011;8915;51.760;14.300;2022-08-02T13:08:01;1.08;;;1.00;;
17592;SDS011;8915;51.760;14.300;2022-08-02T13:10:28;2.67;;;1.27;;
17592;SDS011;8915;51.760;14.300;2022-08-02T13:12:55;1.20;;;1.10;;
17592;SDS011;8915;51.760;14.300;2022-08-02T13:15:21;1.40;;;1.25;;
17592;SDS011;8915;51.760;14.300;2022-08-02T13:17:48;1.10;;;1.02;;
17592;SDS011;8915;51.760;14.300;2022-08-02T13:20:14;1.15;;;1.05;;
17592;SDS011;8915;51.760;14.300;2022-08-02T13:22:41;1.33;;;1.23;;
17592;SDS011;8915;51.760;14.300;2022-08-02T13:25:09;1.95;;;1.20;;
17592;SDS011;8915;51.760;14.300;2022-08-02T13:27:35;1.48;;;1.20;;
17592;SDS011;8915;51.760;14.300;2022-08-02T13:30:03;1.38;;;1.23;;
17592;SDS011;8915;51.760;14.300;2022-08-02T13:32:30;0.98;;;0.93;;
17592;SDS011;8915;51.760;14.300;2022-08-02T13:34:57;1.20;;;1.10;;
17592;SDS011;8915;51.760;14.300;2022-08-02T13:37:24;1.30;;;1.17;;
17592;SDS011;8915;51.760;14.300;2022-08-02T13:39:50;0.95;;;0.95;;
17592;SDS011;8915;51.760;14.300;2022-08-02T13:42:19;1.05;;;1.02;;
17592;SDS011;8915;51.760;14.300;2022-08-02T13:44:46;2.53;;;1.27;;
17592;SDS011;8915;51.760;14.300;2022-08-02T13:47:13;1.05;;;0.98;;
17592;SDS011;8915;51.760;14.300;2022-08-02T13:49:39;1.77;;;1.23;;
17592;SDS011;8915;51.760;14.300;2022-08-02T13:52:06;1.00;;;1.00;;
17592;SDS011;8915;51.760;14.300;2022-08-02T13:54:33;1.23;;;1.13;;
17592;SDS011;8915;51.760;14.300;2022-08-02T13:56:59;1.10;;;1.00;;
17592;SDS011;8915;51.760;14.300;2022-08-02T13:59:27;1.17;;;1.08;;
17592;SDS011;8915;51.760;14.300;2022-08-02T14:01:54;1.80;;;1.35;;
17592;SDS011;8915;51.760;14.300;2022-08-02T14:04:22;0.90;;;0.90;;
17592;SDS011;8915;51.760;14.300;2022-08-02T14:06:49;1.27;;;1.17;;
17592;SDS011;8915;51.760;14.300;2022-08-02T14:09:15;1.38;;;1.27;;
17592;SDS011;8915;51.760;14.300;2022-08-02T14:11:42;1.95;;;1.10;;
17592;SDS011;8915;51.760;14.300;2022-08-02T14:14:09;1.77;;;1.00;;
17592;SDS011;8915;51.760;14.300;2022-08-02T14:16:37;1.40;;;1.30;;
17592;SDS011;8915;51.760;14.300;2022-08-02T14:19:03;2.05;;;1.08;;
17592;SDS011;8915;51.760;14.300;2022-08-02T14:21:29;1.10;;;1.00;;
17592;SDS011;8915;51.760;14.300;2022-08-02T14:23:56;1.45;;;1.02;;
17592;SDS011;8915;51.760;14.300;2022-08-02T14:26:22;1.98;;;1.05;;
17592;SDS011;8915;51.760;14.300;2022-08-02T14:28:49;1.27;;;1.17;;
17592;SDS011;8915;51.760;14.300;2022-08-02T14:31:15;1.27;;;1.17;;
17592;SDS011;8915;51.760;14.300;2022-08-02T14:33:43;1.10;;;1.00;;
17592;SDS011;8915;51.760;14.300;2022-08-02T14:36:09;1.00;;;1.00;;
17592;SDS011;8915;51.760;14.300;2022-08-02T14:38:36;1.20;;;1.10;;
17592;SDS011;8915;51.760;14.300;2022-08-02T14:41:02;1.02;;;0.90;;
17592;SDS011;8915;51.760;14.300;2022-08-02T14:43:28;1.23;;;1.13;;
17592;SDS011;8915;51.760;14.300;2022-08-02T14:46:13;1.33;;;1.20;;
17592;SDS011;8915;51.760;14.300;2022-08-02T14:48:39;1.63;;;1.25;;
17592;SDS011;8915;51.760;14.300;2022-08-02T14:51:07;1.25;;;1.05;;
17592;SDS011;8915;51.760;14.300;2022-08-02T14:53:33;1.17;;;0.93;;
17592;SDS011;8915;51.760;14.300;2022-08-02T14:56:00;1.52;;;1.10;;
17592;SDS011;8915;51.760;14.300;2022-08-02T14:58:26;1.30;;;1.20;;
17592;SDS011;8915;51.760;14.300;2022-08-02T15:00:52;1.00;;;1.00;;
17592;SDS011;8915;51.760;14.300;2022-08-02T15:03:19;1.00;;;0.90;;
17592;SDS011;8915;51.760;14.300;2022-08-02T15:05:45;0.93;;;0.93;;
17592;SDS011;8915;51.760;14.300;2022-08-02T15:08:13;1.10;;;1.00;;